Ashaway, Rhode Island
Current Conditions -  °F | °C
As of 5:29 PM on Monday 24 Nov 2014 (Local Time) from KWST Reporting Station
Haze Haze  
Wind Chill: 58°   Ceiling: 1300
Heat Index: 58°   Visibility: 6mi
Dew Point: 57°   Wind: 13mph
Humidity: 97%   Direction: 210°SSW
Pressure: 29.7"   Gusts: NA
Location:  41.43°N, 71.79°W
Report Text: KWST 242229Z AUTO 21011KT 6SM BR SCT006 OVC013 14/14 A2970 RMK AO2 T01440139
Loading
Personal Weather Stations






























Interactive Weather Map New forecast layout! Learn more

10-Day Weather Forecast

Advertisements
Track Severe Weather on mobile